sensor_id;sensor_type;location;lat;lon;timestamp;P1;durP1;ratioP1;P2;durP2;ratioP2
30743;SDS011;17486;46.738;7.622;2024-02-14T00:02:38;5.90;;;3.38;;
30743;SDS011;17486;46.738;7.622;2024-02-14T00:05:04;7.90;;;4.35;;
30743;SDS011;17486;46.738;7.622;2024-02-14T00:07:30;5.88;;;3.67;;
30743;SDS011;17486;46.738;7.622;2024-02-14T00:09:55;5.35;;;3.60;;
30743;SDS011;17486;46.738;7.622;2024-02-14T00:12:21;5.28;;;3.70;;
30743;SDS011;17486;46.738;7.622;2024-02-14T00:14:46;5.70;;;3.75;;
30743;SDS011;17486;46.738;7.622;2024-02-14T00:17:11;7.35;;;4.03;;
30743;SDS011;17486;46.738;7.622;2024-02-14T00:19:37;6.95;;;3.75;;
30743;SDS011;17486;46.738;7.622;2024-02-14T00:22:03;7.10;;;3.97;;
30743;SDS011;17486;46.738;7.622;2024-02-14T00:24:28;6.20;;;3.60;;
30743;SDS011;17486;46.738;7.622;2024-02-14T00:26:54;7.97;;;3.60;;
30743;SDS011;17486;46.738;7.622;2024-02-14T00:29:21;5.28;;;3.60;;
30743;SDS011;17486;46.738;7.622;2024-02-14T00:31:47;6.60;;;3.90;;
30743;SDS011;17486;46.738;7.622;2024-02-14T00:34:13;5.28;;;3.90;;
30743;SDS011;17486;46.738;7.622;2024-02-14T00:36:38;6.75;;;3.83;;
30743;SDS011;17486;46.738;7.622;2024-02-14T00:39:04;5.82;;;4.18;;
30743;SDS011;17486;46.738;7.622;2024-02-14T00:41:29;6.45;;;3.78;;
30743;SDS011;17486;46.738;7.622;2024-02-14T00:43:57;5.85;;;4.10;;
30743;SDS011;17486;46.738;7.622;2024-02-14T00:46:23;6.20;;;4.30;;
30743;SDS011;17486;46.738;7.622;2024-02-14T00:48:48;7.65;;;4.13;;
30743;SDS011;17486;46.738;7.622;2024-02-14T00:51:14;6.63;;;4.63;;
30743;SDS011;17486;46.738;7.622;2024-02-14T00:53:39;6.68;;;4.50;;
30743;SDS011;17486;46.738;7.622;2024-02-14T00:56:05;5.72;;;4.10;;
30743;SDS011;17486;46.738;7.622;2024-02-14T00:58:31;5.75;;;4.20;;
30743;SDS011;17486;46.738;7.622;2024-02-14T01:00:56;5.88;;;3.83;;
30743;SDS011;17486;46.738;7.622;2024-02-14T01:03:22;5.53;;;4.13;;
30743;SDS011;17486;46.738;7.622;2024-02-14T01:05:47;7.47;;;4.03;;
30743;SDS011;17486;46.738;7.622;2024-02-14T01:08:13;6.00;;;3.85;;
30743;SDS011;17486;46.738;7.622;2024-02-14T01:10:39;5.65;;;3.70;;
30743;SDS011;17486;46.738;7.622;2024-02-14T01:13:05;7.43;;;3.65;;
30743;SDS011;17486;46.738;7.622;2024-02-14T01:15:31;6.03;;;3.95;;
30743;SDS011;17486;46.738;7.622;2024-02-14T01:17:56;5.15;;;3.60;;
30743;SDS011;17486;46.738;7.622;2024-02-14T01:20:23;7.95;;;4.07;;
30743;SDS011;17486;46.738;7.622;2024-02-14T01:22:48;5.57;;;3.60;;
30743;SDS011;17486;46.738;7.622;2024-02-14T01:25:13;5.18;;;3.28;;
30743;SDS011;17486;46.738;7.622;2024-02-14T01:27:39;4.47;;;3.45;;
30743;SDS011;17486;46.738;7.622;2024-02-14T01:30:05;6.55;;;3.85;;
30743;SDS011;17486;46.738;7.622;2024-02-14T01:32:31;4.70;;;3.55;;
30743;SDS011;17486;46.738;7.622;2024-02-14T01:34:56;4.90;;;3.60;;
30743;SDS011;17486;46.738;7.622;2024-02-14T01:37:22;6.28;;;3.40;;
30743;SDS011;17486;46.738;7.622;2024-02-14T01:39:47;5.60;;;3.50;;
30743;SDS011;17486;46.738;7.622;2024-02-14T01:42:12;5.75;;;3.25;;
30743;SDS011;17486;46.738;7.622;2024-02-14T01:44:38;5.85;;;3.45;;
30743;SDS011;17486;46.738;7.622;2024-02-14T01:47:03;5.03;;;3.60;;
30743;SDS011;17486;46.738;7.622;2024-02-14T01:49:29;5.78;;;3.28;;
30743;SDS011;17486;46.738;7.622;2024-02-14T01:51:57;4.35;;;2.95;;
30743;SDS011;17486;46.738;7.622;2024-02-14T01:54:26;4.43;;;3.25;;
30743;SDS011;17486;46.738;7.622;2024-02-14T01:56:52;5.20;;;2.75;;
30743;SDS011;17486;46.738;7.622;2024-02-14T01:59:19;3.47;;;2.50;;
30743;SDS011;17486;46.738;7.622;2024-02-14T02:01:45;5.55;;;2.75;;
30743;SDS011;17486;46.738;7.622;2024-02-14T02:04:11;5.70;;;2.83;;
30743;SDS011;17486;46.738;7.622;2024-02-14T02:06:37;4.43;;;2.95;;
30743;SDS011;17486;46.738;7.622;2024-02-14T02:09:03;3.55;;;2.63;;
30743;SDS011;17486;46.738;7.622;2024-02-14T02:11:28;4.47;;;2.85;;
30743;SDS011;17486;46.738;7.622;2024-02-14T02:13:53;4.60;;;2.85;;
30743;SDS011;17486;46.738;7.622;2024-02-14T02:16:21;5.60;;;3.17;;
30743;SDS011;17486;46.738;7.622;2024-02-14T02:18:47;3.67;;;2.83;;
30743;SDS011;17486;46.738;7.622;2024-02-14T02:21:13;3.70;;;2.78;;
30743;SDS011;17486;46.738;7.622;2024-02-14T02:23:39;5.35;;;2.97;;
30743;SDS011;17486;46.738;7.622;2024-02-14T02:26:06;8.38;;;3.38;;
30743;SDS011;17486;46.738;7.622;2024-02-14T02:28:32;4.53;;;3.20;;
30743;SDS011;17486;46.738;7.622;2024-02-14T02:30:57;5.40;;;3.13;;
30743;SDS011;17486;46.738;7.622;2024-02-14T02:33:22;4.80;;;2.85;;
30743;SDS011;17486;46.738;7.622;2024-02-14T02:35:48;6.95;;;3.00;;
30743;SDS011;17486;46.738;7.622;2024-02-14T02:38:15;4.40;;;2.92;;
30743;SDS011;17486;46.738;7.622;2024-02-14T02:40:41;4.68;;;2.70;;
30743;SDS011;17486;46.738;7.622;2024-02-14T02:43:07;4.40;;;2.80;;
30743;SDS011;17486;46.738;7.622;2024-02-14T02:45:32;5.05;;;2.55;;
30743;SDS011;17486;46.738;7.622;2024-02-14T02:47:58;4.57;;;3.05;;
30743;SDS011;17486;46.738;7.622;2024-02-14T02:50:25;4.78;;;2.80;;
30743;SDS011;17486;46.738;7.622;2024-02-14T02:52:50;4.75;;;3.05;;
30743;SDS011;17486;46.738;7.622;2024-02-14T02:55:16;4.28;;;2.80;;
30743;SDS011;17486;46.738;7.622;2024-02-14T02:57:43;3.65;;;2.60;;
30743;SDS011;17486;46.738;7.622;2024-02-14T03:00:09;6.60;;;3.08;;
30743;SDS011;17486;46.738;7.622;2024-02-14T03:02:35;5.47;;;2.90;;
30743;SDS011;17486;46.738;7.622;2024-02-14T03:05:06;4.82;;;2.78;;
30743;SDS011;17486;46.738;7.622;2024-02-14T03:07:33;4.70;;;3.00;;
30743;SDS011;17486;46.738;7.622;2024-02-14T03:09:59;4.97;;;2.83;;
30743;SDS011;17486;46.738;7.622;2024-02-14T03:12:24;3.90;;;2.72;;
30743;SDS011;17486;46.738;7.622;2024-02-14T03:14:53;4.68;;;2.83;;
30743;SDS011;17486;46.738;7.622;2024-02-14T03:17:18;5.07;;;2.70;;
30743;SDS011;17486;46.738;7.622;2024-02-14T03:19:44;4.93;;;2.85;;
30743;SDS011;17486;46.738;7.622;2024-02-14T03:22:09;4.63;;;2.85;;
30743;SDS011;17486;46.738;7.622;2024-02-14T03:24:35;5.30;;;2.90;;
30743;SDS011;17486;46.738;7.622;2024-02-14T03:27:03;5.53;;;3.08;;
30743;SDS011;17486;46.738;7.622;2024-02-14T03:29:30;6.03;;;2.83;;
30743;SDS011;17486;46.738;7.622;2024-02-14T03:31:55;4.28;;;2.90;;
30743;SDS011;17486;46.738;7.622;2024-02-14T03:34:23;4.88;;;2.92;;
30743;SDS011;17486;46.738;7.622;2024-02-14T03:36:50;4.90;;;3.33;;
30743;SDS011;17486;46.738;7.622;2024-02-14T03:39:15;6.03;;;3.53;;
30743;SDS011;17486;46.738;7.622;2024-02-14T03:41:42;6.55;;;3.38;;
30743;SDS011;17486;46.738;7.622;2024-02-14T03:44:07;4.65;;;3.15;;
30743;SDS011;17486;46.738;7.622;2024-02-14T03:46:33;4.35;;;3.20;;
30743;SDS011;17486;46.738;7.622;2024-02-14T03:49:00;6.57;;;3.15;;
30743;SDS011;17486;46.738;7.622;2024-02-14T03:51:25;3.97;;;2.83;;
30743;SDS011;17486;46.738;7.622;2024-02-14T03:53:51;5.45;;;3.05;;
30743;SDS011;17486;46.738;7.622;2024-02-14T03:56:16;3.78;;;3.00;;
30743;SDS011;17486;46.738;7.622;2024-02-14T03:58:42;5.63;;;3.63;;
30743;SDS011;17486;46.738;7.622;2024-02-14T04:01:08;4.80;;;3.05;;
30743;SDS011;17486;46.738;7.622;2024-02-14T04:03:33;5.18;;;2.72;;
30743;SDS011;17486;46.738;7.622;2024-02-14T04:05:59;6.60;;;2.92;;
30743;SDS011;17486;46.738;7.622;2024-02-14T04:08:24;4.65;;;2.92;;
30743;SDS011;17486;46.738;7.622;2024-02-14T04:10:49;3.90;;;2.88;;
30743;SDS011;17486;46.738;7.622;2024-02-14T04:13:15;4.15;;;2.75;;
30743;SDS011;17486;46.738;7.622;2024-02-14T04:15:41;4.60;;;2.97;;
30743;SDS011;17486;46.738;7.622;2024-02-14T04:18:09;4.00;;;2.40;;
30743;SDS011;17486;46.738;7.622;2024-02-14T04:20:35;5.55;;;2.90;;
30743;SDS011;17486;46.738;7.622;2024-02-14T04:23:00;4.10;;;2.72;;
30743;SDS011;17486;46.738;7.622;2024-02-14T04:25:25;5.18;;;2.90;;
30743;SDS011;17486;46.738;7.622;2024-02-14T04:27:51;4.70;;;3.30;;
30743;SDS011;17486;46.738;7.622;2024-02-14T04:30:16;5.88;;;3.03;;
30743;SDS011;17486;46.738;7.622;2024-02-14T04:32:42;4.85;;;2.90;;
30743;SDS011;17486;46.738;7.622;2024-02-14T04:35:08;5.22;;;3.05;;
30743;SDS011;17486;46.738;7.622;2024-02-14T04:37:34;4.40;;;2.85;;
30743;SDS011;17486;46.738;7.622;2024-02-14T04:39:59;3.58;;;2.70;;
30743;SDS011;17486;46.738;7.622;2024-02-14T04:42:25;3.28;;;2.50;;
30743;SDS011;17486;46.738;7.622;2024-02-14T04:44:50;3.47;;;2.83;;
30743;SDS011;17486;46.738;7.622;2024-02-14T04:47:15;6.18;;;3.53;;
30743;SDS011;17486;46.738;7.622;2024-02-14T04:49:41;4.90;;;3.88;;
30743;SDS011;17486;46.738;7.622;2024-02-14T04:52:06;4.88;;;3.95;;
30743;SDS011;17486;46.738;7.622;2024-02-14T04:54:32;5.32;;;3.80;;
30743;SDS011;17486;46.738;7.622;2024-02-14T04:56:58;6.88;;;4.53;;
30743;SDS011;17486;46.738;7.622;2024-02-14T04:59:23;7.43;;;4.20;;
30743;SDS011;17486;46.738;7.622;2024-02-14T05:01:49;7.63;;;4.40;;
30743;SDS011;17486;46.738;7.622;2024-02-14T05:04:15;7.65;;;4.32;;
30743;SDS011;17486;46.738;7.622;2024-02-14T05:06:41;5.95;;;4.13;;
30743;SDS011;17486;46.738;7.622;2024-02-14T05:09:07;7.75;;;4.38;;
30743;SDS011;17486;46.738;7.622;2024-02-14T05:11:35;6.75;;;4.53;;
30743;SDS011;17486;46.738;7.622;2024-02-14T05:14:01;7.15;;;4.72;;
30743;SDS011;17486;46.738;7.622;2024-02-14T05:16:27;5.25;;;4.13;;
30743;SDS011;17486;46.738;7.622;2024-02-14T05:18:52;5.95;;;3.90;;
30743;SDS011;17486;46.738;7.622;2024-02-14T05:21:19;6.18;;;4.20;;
30743;SDS011;17486;46.738;7.622;2024-02-14T05:23:46;6.40;;;4.30;;
30743;SDS011;17486;46.738;7.622;2024-02-14T05:26:11;6.35;;;3.97;;
30743;SDS011;17486;46.738;7.622;2024-02-14T05:28:37;7.57;;;4.32;;
30743;SDS011;17486;46.738;7.622;2024-02-14T05:31:02;5.60;;;3.85;;
30743;SDS011;17486;46.738;7.622;2024-02-14T05:33:28;9.60;;;4.80;;
30743;SDS011;17486;46.738;7.622;2024-02-14T05:35:53;6.53;;;3.88;;
30743;SDS011;17486;46.738;7.622;2024-02-14T05:38:19;6.43;;;4.25;;
30743;SDS011;17486;46.738;7.622;2024-02-14T05:40:48;7.07;;;4.03;;
30743;SDS011;17486;46.738;7.622;2024-02-14T05:43:14;7.20;;;4.13;;
30743;SDS011;17486;46.738;7.622;2024-02-14T05:45:40;6.25;;;3.38;;
30743;SDS011;17486;46.738;7.622;2024-02-14T05:48:06;7.32;;;3.42;;
30743;SDS011;17486;46.738;7.622;2024-02-14T05:50:32;4.78;;;3.22;;
30743;SDS011;17486;46.738;7.622;2024-02-14T05:52:58;5.15;;;3.15;;
30743;SDS011;17486;46.738;7.622;2024-02-14T05:55:24;5.05;;;2.80;;
30743;SDS011;17486;46.738;7.622;2024-02-14T05:57:50;4.53;;;2.95;;
30743;SDS011;17486;46.738;7.622;2024-02-14T06:00:19;6.65;;;3.28;;
30743;SDS011;17486;46.738;7.622;2024-02-14T06:02:46;4.85;;;3.13;;
30743;SDS011;17486;46.738;7.622;2024-02-14T06:05:12;7.90;;;3.35;;
30743;SDS011;17486;46.738;7.622;2024-02-14T06:07:38;6.18;;;3.97;;
30743;SDS011;17486;46.738;7.622;2024-02-14T06:10:03;4.45;;;3.25;;
30743;SDS011;17486;46.738;7.622;2024-02-14T06:12:31;6.13;;;3.63;;
30743;SDS011;17486;46.738;7.622;2024-02-14T06:14:56;6.15;;;3.92;;
30743;SDS011;17486;46.738;7.622;2024-02-14T06:17:22;5.10;;;3.30;;
30743;SDS011;17486;46.738;7.622;2024-02-14T06:19:47;7.32;;;3.35;;
30743;SDS011;17486;46.738;7.622;2024-02-14T06:22:13;7.00;;;3.53;;
30743;SDS011;17486;46.738;7.622;2024-02-14T06:24:38;5.18;;;3.53;;
30743;SDS011;17486;46.738;7.622;2024-02-14T06:27:04;5.97;;;3.65;;
30743;SDS011;17486;46.738;7.622;2024-02-14T06:29:29;4.97;;;3.97;;
30743;SDS011;17486;46.738;7.622;2024-02-14T06:31:55;5.75;;;3.50;;
30743;SDS011;17486;46.738;7.622;2024-02-14T06:34:20;5.95;;;3.10;;
30743;SDS011;17486;46.738;7.622;2024-02-14T06:36:46;6.15;;;3.60;;
30743;SDS011;17486;46.738;7.622;2024-02-14T06:39:11;7.93;;;4.65;;
30743;SDS011;17486;46.738;7.622;2024-02-14T06:41:37;8.68;;;4.88;;
30743;SDS011;17486;46.738;7.622;2024-02-14T06:44:03;8.75;;;4.88;;
30743;SDS011;17486;46.738;7.622;2024-02-14T06:46:31;7.50;;;4.28;;
30743;SDS011;17486;46.738;7.622;2024-02-14T06:48:57;6.72;;;4.28;;
30743;SDS011;17486;46.738;7.622;2024-02-14T06:51:22;7.72;;;4.93;;
30743;SDS011;17486;46.738;7.622;2024-02-14T06:53:49;7.15;;;4.72;;
30743;SDS011;17486;46.738;7.622;2024-02-14T06:56:17;7.47;;;4.32;;
30743;SDS011;17486;46.738;7.622;2024-02-14T06:58:42;8.20;;;4.63;;
30743;SDS011;17486;46.738;7.622;2024-02-14T07:01:08;6.68;;;4.45;;
30743;SDS011;17486;46.738;7.622;2024-02-14T07:03:33;11.15;;;4.55;;
30743;SDS011;17486;46.738;7.622;2024-02-14T07:05:59;7.00;;;4.50;;
30743;SDS011;17486;46.738;7.622;2024-02-14T07:08:24;7.63;;;4.47;;
30743;SDS011;17486;46.738;7.622;2024-02-14T07:10:53;10.38;;;3.95;;
30743;SDS011;17486;46.738;7.622;2024-02-14T07:13:19;11.35;;;4.00;;
30743;SDS011;17486;46.738;7.622;2024-02-14T07:15:44;12.50;;;4.30;;
30743;SDS011;17486;46.738;7.622;2024-02-14T07:18:10;9.05;;;4.57;;
30743;SDS011;17486;46.738;7.622;2024-02-14T07:20:35;9.50;;;4.45;;
30743;SDS011;17486;46.738;7.622;2024-02-14T07:23:01;7.65;;;4.25;;
30743;SDS011;17486;46.738;7.622;2024-02-14T07:25:26;6.03;;;3.35;;
30743;SDS011;17486;46.738;7.622;2024-02-14T07:27:52;5.07;;;2.90;;
30743;SDS011;17486;46.738;7.622;2024-02-14T07:30:17;5.18;;;3.15;;
30743;SDS011;17486;46.738;7.622;2024-02-14T07:32:44;5.70;;;3.83;;
30743;SDS011;17486;46.738;7.622;2024-02-14T07:35:09;5.85;;;3.13;;
30743;SDS011;17486;46.738;7.622;2024-02-14T07:37:36;7.32;;;3.20;;
30743;SDS011;17486;46.738;7.622;2024-02-14T07:40:01;4.50;;;3.00;;
30743;SDS011;17486;46.738;7.622;2024-02-14T07:42:27;5.63;;;2.92;;
30743;SDS011;17486;46.738;7.622;2024-02-14T07:44:52;5.38;;;3.33;;
30743;SDS011;17486;46.738;7.622;2024-02-14T07:47:19;3.85;;;2.60;;
30743;SDS011;17486;46.738;7.622;2024-02-14T07:49:44;5.57;;;2.70;;
30743;SDS011;17486;46.738;7.622;2024-02-14T07:52:09;3.38;;;2.30;;
30743;SDS011;17486;46.738;7.622;2024-02-14T07:54:35;5.22;;;2.85;;
30743;SDS011;17486;46.738;7.622;2024-02-14T07:57:00;3.50;;;2.60;;
30743;SDS011;17486;46.738;7.622;2024-02-14T07:59:26;6.65;;;3.05;;
30743;SDS011;17486;46.738;7.622;2024-02-14T08:01:52;5.57;;;3.90;;
30743;SDS011;17486;46.738;7.622;2024-02-14T08:04:17;5.50;;;3.38;;
30743;SDS011;17486;46.738;7.622;2024-02-14T08:06:46;6.95;;;3.35;;
30743;SDS011;17486;46.738;7.622;2024-02-14T08:09:14;3.45;;;2.88;;
30743;SDS011;17486;46.738;7.622;2024-02-14T08:11:39;6.30;;;3.40;;
30743;SDS011;17486;46.738;7.622;2024-02-14T08:14:05;10.32;;;3.40;;
30743;SDS011;17486;46.738;7.622;2024-02-14T08:16:30;7.38;;;3.53;;
30743;SDS011;17486;46.738;7.622;2024-02-14T08:18:56;9.02;;;4.03;;
30743;SDS011;17486;46.738;7.622;2024-02-14T08:21:27;5.78;;;3.40;;
30743;SDS011;17486;46.738;7.622;2024-02-14T08:23:53;5.95;;;3.95;;
30743;SDS011;17486;46.738;7.622;2024-02-14T08:26:20;4.90;;;3.35;;
30743;SDS011;17486;46.738;7.622;2024-02-14T08:28:47;5.93;;;3.70;;
30743;SDS011;17486;46.738;7.622;2024-02-14T08:31:13;6.03;;;3.28;;
30743;SDS011;17486;46.738;7.622;2024-02-14T08:33:38;6.30;;;3.50;;
30743;SDS011;17486;46.738;7.622;2024-02-14T08:36:04;6.45;;;3.67;;
30743;SDS011;17486;46.738;7.622;2024-02-14T08:38:31;5.20;;;3.38;;
30743;SDS011;17486;46.738;7.622;2024-02-14T08:40:57;7.05;;;3.97;;
30743;SDS011;17486;46.738;7.622;2024-02-14T08:43:22;8.15;;;4.10;;
30743;SDS011;17486;46.738;7.622;2024-02-14T08:45:51;7.47;;;3.80;;
30743;SDS011;17486;46.738;7.622;2024-02-14T08:48:17;5.13;;;3.67;;
30743;SDS011;17486;46.738;7.622;2024-02-14T08:50:42;4.75;;;3.13;;
30743;SDS011;17486;46.738;7.622;2024-02-14T08:53:08;4.88;;;2.65;;
30743;SDS011;17486;46.738;7.622;2024-02-14T08:55:34;7.15;;;3.17;;
30743;SDS011;17486;46.738;7.622;2024-02-14T08:58:01;4.05;;;2.20;;
30743;SDS011;17486;46.738;7.622;2024-02-14T09:00:27;3.28;;;2.20;;
30743;SDS011;17486;46.738;7.622;2024-02-14T09:02:52;4.32;;;2.85;;
30743;SDS011;17486;46.738;7.622;2024-02-14T09:05:17;3.22;;;2.70;;
30743;SDS011;17486;46.738;7.622;2024-02-14T09:07:43;3.38;;;1.50;;
30743;SDS011;17486;46.738;7.622;2024-02-14T09:10:09;2.13;;;1.60;;
30743;SDS011;17486;46.738;7.622;2024-02-14T09:12:37;1.40;;;1.15;;
30743;SDS011;17486;46.738;7.622;2024-02-14T09:15:03;3.15;;;1.80;;
30743;SDS011;17486;46.738;7.622;2024-02-14T09:17:30;2.67;;;1.45;;
30743;SDS011;17486;46.738;7.622;2024-02-14T09:19:55;2.38;;;1.20;;
30743;SDS011;17486;46.738;7.622;2024-02-14T09:22:21;1.67;;;1.27;;
30743;SDS011;17486;46.738;7.622;2024-02-14T09:24:49;2.45;;;1.40;;
30743;SDS011;17486;46.738;7.622;2024-02-14T09:27:15;2.53;;;1.35;;
30743;SDS011;17486;46.738;7.622;2024-02-14T09:29:41;2.17;;;1.40;;
30743;SDS011;17486;46.738;7.622;2024-02-14T09:32:07;2.42;;;1.50;;
30743;SDS011;17486;46.738;7.622;2024-02-14T09:34:33;1.60;;;1.45;;
30743;SDS011;17486;46.738;7.622;2024-02-14T09:36:59;1.92;;;1.20;;
30743;SDS011;17486;46.738;7.622;2024-02-14T09:39:24;3.67;;;1.42;;
30743;SDS011;17486;46.738;7.622;2024-02-14T09:41:58;5.13;;;1.80;;
30743;SDS011;17486;46.738;7.622;2024-02-14T09:44:30;2.90;;;1.42;;
30743;SDS011;17486;46.738;7.622;2024-02-14T09:46:57;4.32;;;1.77;;
30743;SDS011;17486;46.738;7.622;2024-02-14T09:49:24;4.60;;;1.50;;
30743;SDS011;17486;46.738;7.622;2024-02-14T09:51:50;3.72;;;1.70;;
30743;SDS011;17486;46.738;7.622;2024-02-14T09:54:17;1.80;;;1.50;;
30743;SDS011;17486;46.738;7.622;2024-02-14T09:56:52;2.45;;;1.60;;
30743;SDS011;17486;46.738;7.622;2024-02-14T09:59:20;3.20;;;1.67;;
30743;SDS011;17486;46.738;7.622;2024-02-14T10:01:47;2.85;;;1.30;;
30743;SDS011;17486;46.738;7.622;2024-02-14T10:04:15;2.17;;;1.58;;
30743;SDS011;17486;46.738;7.622;2024-02-14T10:06:42;3.38;;;1.65;;
30743;SDS011;17486;46.738;7.622;2024-02-14T10:09:08;2.30;;;1.63;;
30743;SDS011;17486;46.738;7.622;2024-02-14T10:11:35;3.22;;;1.65;;
30743;SDS011;17486;46.738;7.622;2024-02-14T10:14:01;4.25;;;1.70;;
30743;SDS011;17486;46.738;7.622;2024-02-14T10:16:28;2.85;;;1.48;;
30743;SDS011;17486;46.738;7.622;2024-02-14T10:18:54;2.60;;;1.60;;
30743;SDS011;17486;46.738;7.622;2024-02-14T10:21:21;2.65;;;1.80;;
30743;SDS011;17486;46.738;7.622;2024-02-14T10:23:47;2.75;;;1.70;;
30743;SDS011;17486;46.738;7.622;2024-02-14T10:26:17;2.22;;;1.52;;
30743;SDS011;17486;46.738;7.622;2024-02-14T10:28:42;2.88;;;1.45;;
30743;SDS011;17486;46.738;7.622;2024-02-14T10:31:09;3.67;;;1.88;;
30743;SDS011;17486;46.738;7.622;2024-02-14T10:33:35;2.90;;;1.70;;
30743;SDS011;17486;46.738;7.622;2024-02-14T10:36:00;4.85;;;1.60;;
30743;SDS011;17486;46.738;7.622;2024-02-14T10:38:28;2.53;;;1.80;;
30743;SDS011;17486;46.738;7.622;2024-02-14T10:40:57;5.18;;;2.30;;
30743;SDS011;17486;46.738;7.622;2024-02-14T10:43:25;3.25;;;2.08;;
30743;SDS011;17486;46.738;7.622;2024-02-14T10:45:51;2.30;;;1.90;;
30743;SDS011;17486;46.738;7.622;2024-02-14T10:48:18;3.40;;;2.08;;
30743;SDS011;17486;46.738;7.622;2024-02-14T10:50:50;2.88;;;1.98;;
30743;SDS011;17486;46.738;7.622;2024-02-14T10:53:18;3.17;;;2.10;;
30743;SDS011;17486;46.738;7.622;2024-02-14T10:55:48;2.65;;;1.80;;
30743;SDS011;17486;46.738;7.622;2024-02-14T10:58:17;2.92;;;2.10;;
30743;SDS011;17486;46.738;7.622;2024-02-14T11:00:43;3.40;;;2.13;;
30743;SDS011;17486;46.738;7.622;2024-02-14T11:03:12;3.13;;;1.98;;
30743;SDS011;17486;46.738;7.622;2024-02-14T11:05:44;2.90;;;2.20;;
30743;SDS011;17486;46.738;7.622;2024-02-14T11:08:13;4.00;;;2.90;;
30743;SDS011;17486;46.738;7.622;2024-02-14T11:10:39;2.60;;;2.10;;
30743;SDS011;17486;46.738;7.622;2024-02-14T11:13:04;2.75;;;1.88;;
30743;SDS011;17486;46.738;7.622;2024-02-14T11:15:35;1.58;;;1.48;;
30743;SDS011;17486;46.738;7.622;2024-02-14T11:18:04;4.60;;;2.13;;
30743;SDS011;17486;46.738;7.622;2024-02-14T11:20:32;1.52;;;1.38;;
30743;SDS011;17486;46.738;7.622;2024-02-14T11:23:03;1.55;;;1.45;;
30743;SDS011;17486;46.738;7.622;2024-02-14T11:25:31;2.30;;;1.52;;
30743;SDS011;17486;46.738;7.622;2024-02-14T11:27:59;5.30;;;1.70;;
30743;SDS011;17486;46.738;7.622;2024-02-14T11:30:30;3.78;;;1.95;;
30743;SDS011;17486;46.738;7.622;2024-02-14T11:33:09;2.10;;;1.50;;
30743;SDS011;17486;46.738;7.622;2024-02-14T11:35:35;3.33;;;1.70;;
30743;SDS011;17486;46.738;7.622;2024-02-14T11:38:05;2.08;;;1.38;;
30743;SDS011;17486;46.738;7.622;2024-02-14T11:40:32;2.28;;;1.65;;
30743;SDS011;17486;46.738;7.622;2024-02-14T11:42:57;4.25;;;1.75;;
30743;SDS011;17486;46.738;7.622;2024-02-14T11:45:22;2.97;;;1.67;;
30743;SDS011;17486;46.738;7.622;2024-02-14T11:47:48;3.13;;;2.30;;
30743;SDS011;17486;46.738;7.622;2024-02-14T11:50:13;2.20;;;1.70;;
30743;SDS011;17486;46.738;7.622;2024-02-14T11:52:39;1.95;;;1.30;;
30743;SDS011;17486;46.738;7.622;2024-02-14T11:55:04;2.35;;;1.75;;
30743;SDS011;17486;46.738;7.622;2024-02-14T11:57:31;3.25;;;1.50;;
30743;SDS011;17486;46.738;7.622;2024-02-14T11:59:57;3.50;;;1.73;;
30743;SDS011;17486;46.738;7.622;2024-02-14T12:02:23;2.20;;;1.60;;
30743;SDS011;17486;46.738;7.622;2024-02-14T12:04:48;2.05;;;1.77;;
30743;SDS011;17486;46.738;7.622;2024-02-14T12:07:15;2.33;;;1.67;;
30743;SDS011;17486;46.738;7.622;2024-02-14T12:09:41;1.60;;;1.50;;
30743;SDS011;17486;46.738;7.622;2024-02-14T12:12:08;3.38;;;1.60;;
30743;SDS011;17486;46.738;7.622;2024-02-14T12:14:34;3.92;;;1.80;;
30743;SDS011;17486;46.738;7.622;2024-02-14T12:16:59;2.58;;;1.75;;
30743;SDS011;17486;46.738;7.622;2024-02-14T12:19:28;3.72;;;1.60;;
30743;SDS011;17486;46.738;7.622;2024-02-14T12:21:54;2.60;;;1.67;;
30743;SDS011;17486;46.738;7.622;2024-02-14T12:24:21;2.55;;;1.88;;
30743;SDS011;17486;46.738;7.622;2024-02-14T12:26:48;3.60;;;2.08;;
30743;SDS011;17486;46.738;7.622;2024-02-14T12:29:13;2.05;;;1.70;;
30743;SDS011;17486;46.738;7.622;2024-02-14T12:31:39;2.58;;;1.80;;
30743;SDS011;17486;46.738;7.622;2024-02-14T12:34:04;3.38;;;1.70;;
30743;SDS011;17486;46.738;7.622;2024-02-14T12:36:30;1.60;;;1.42;;
30743;SDS011;17486;46.738;7.622;2024-02-14T12:38:58;2.17;;;1.98;;
30743;SDS011;17486;46.738;7.622;2024-02-14T12:41:23;2.22;;;1.75;;
30743;SDS011;17486;46.738;7.622;2024-02-14T12:43:51;2.50;;;1.30;;
30743;SDS011;17486;46.738;7.622;2024-02-14T12:46:16;2.03;;;1.60;;
30743;SDS011;17486;46.738;7.622;2024-02-14T12:48:42;2.08;;;1.73;;
30743;SDS011;17486;46.738;7.622;2024-02-14T12:51:07;2.38;;;1.80;;
30743;SDS011;17486;46.738;7.622;2024-02-14T12:53:33;2.97;;;1.88;;
30743;SDS011;17486;46.738;7.622;2024-02-14T12:55:59;1.88;;;1.70;;
30743;SDS011;17486;46.738;7.622;2024-02-14T12:58:25;2.00;;;1.63;;
30743;SDS011;17486;46.738;7.622;2024-02-14T13:00:50;2.75;;;1.73;;
30743;SDS011;17486;46.738;7.622;2024-02-14T13:03:16;2.15;;;1.50;;
30743;SDS011;17486;46.738;7.622;2024-02-14T13:05:41;1.88;;;1.60;;
30743;SDS011;17486;46.738;7.622;2024-02-14T13:08:08;1.80;;;1.33;;
30743;SDS011;17486;46.738;7.622;2024-02-14T13:10:36;2.53;;;1.67;;
30743;SDS011;17486;46.738;7.622;2024-02-14T13:13:01;3.60;;;1.80;;
30743;SDS011;17486;46.738;7.622;2024-02-14T13:15:27;1.88;;;1.60;;
30743;SDS011;17486;46.738;7.622;2024-02-14T13:17:53;1.60;;;1.48;;
30743;SDS011;17486;46.738;7.622;2024-02-14T13:20:21;4.07;;;1.52;;
30743;SDS011;17486;46.738;7.622;2024-02-14T13:22:47;3.78;;;1.75;;
30743;SDS011;17486;46.738;7.622;2024-02-14T13:25:12;2.15;;;1.70;;
30743;SDS011;17486;46.738;7.622;2024-02-14T13:27:39;3.13;;;1.85;;
30743;SDS011;17486;46.738;7.622;2024-02-14T13:30:05;2.83;;;1.98;;
30743;SDS011;17486;46.738;7.622;2024-02-14T13:32:32;1.75;;;1.65;;
30743;SDS011;17486;46.738;7.622;2024-02-14T13:34:57;3.08;;;1.92;;
30743;SDS011;17486;46.738;7.622;2024-02-14T13:37:23;3.63;;;1.90;;
30743;SDS011;17486;46.738;7.622;2024-02-14T13:39:49;2.05;;;1.80;;
30743;SDS011;17486;46.738;7.622;2024-02-14T13:42:15;7.32;;;2.03;;
30743;SDS011;17486;46.738;7.622;2024-02-14T13:44:40;2.05;;;1.52;;
30743;SDS011;17486;46.738;7.622;2024-02-14T13:47:06;2.38;;;1.83;;
30743;SDS011;17486;46.738;7.622;2024-02-14T13:49:31;4.25;;;1.80;;
30743;SDS011;17486;46.738;7.622;2024-02-14T13:51:57;4.22;;;1.77;;
30743;SDS011;17486;46.738;7.622;2024-02-14T13:54:23;2.67;;;1.90;;
30743;SDS011;17486;46.738;7.622;2024-02-14T13:56:49;8.93;;;1.98;;
30743;SDS011;17486;46.738;7.622;2024-02-14T13:59:15;2.15;;;1.70;;
30743;SDS011;17486;46.738;7.622;2024-02-14T14:01:41;2.17;;;1.92;;
30743;SDS011;17486;46.738;7.622;2024-02-14T14:04:06;3.95;;;2.15;;
30743;SDS011;17486;46.738;7.622;2024-02-14T14:06:32;2.97;;;2.30;;
30743;SDS011;17486;46.738;7.622;2024-02-14T14:08:57;3.58;;;1.80;;
30743;SDS011;17486;46.738;7.622;2024-02-14T14:11:24;1.83;;;1.60;;
30743;SDS011;17486;46.738;7.622;2024-02-14T14:13:49;4.15;;;1.73;;
30743;SDS011;17486;46.738;7.622;2024-02-14T14:16:15;2.10;;;1.90;;
30743;SDS011;17486;46.738;7.622;2024-02-14T14:18:40;3.78;;;1.98;;
30743;SDS011;17486;46.738;7.622;2024-02-14T14:21:06;2.08;;;1.88;;
30743;SDS011;17486;46.738;7.622;2024-02-14T14:23:32;3.15;;;2.05;;
30743;SDS011;17486;46.738;7.622;2024-02-14T14:25:57;3.85;;;2.05;;
30743;SDS011;17486;46.738;7.622;2024-02-14T14:28:24;4.72;;;1.98;;
30743;SDS011;17486;46.738;7.622;2024-02-14T14:30:59;2.90;;;2.00;;
30743;SDS011;17486;46.738;7.622;2024-02-14T14:33:26;2.80;;;1.98;;
30743;SDS011;17486;46.738;7.622;2024-02-14T14:35:52;2.88;;;1.75;;
30743;SDS011;17486;46.738;7.622;2024-02-14T14:38:18;2.88;;;1.60;;
30743;SDS011;17486;46.738;7.622;2024-02-14T14:40:44;4.03;;;2.25;;
30743;SDS011;17486;46.738;7.622;2024-02-14T14:43:13;3.00;;;1.90;;